Time;durP1;ratioP1;P1;durP2;ratioP2;P2;SDS_P1;SDS_P2;PMS_P1;PMS_P2;Temp;Humidity;BMP_temperature;BMP_pressure;BME280_temperature;BME280_humidity;BME280_pressure;Samples;Min_cycle;Max_cycle;Signal;HPM_P1;HPM_P2
2021/11/06 00:00:20;;;;;;;23.65;17.45;;;;;;;;;;5051238;28;20033;-53
2021/11/06 00:02:46;;;;;;;28.83;19.65;;;;;;;;;;5053187;28;20110;-53
2021/11/06 00:05:13;;;;;;;43.10;27.58;;;;;;;;;;5053743;28;20100;-53
2021/11/06 00:07:39;;;;;;;52.55;33.95;;;;;;;;;;5054322;28;20035;-52
2021/11/06 00:10:09;;;;;;;43.85;25.80;;;;;;;;;;5054435;28;20084;-54
2021/11/06 00:12:36;;;;;;;31.05;19.52;;;;;;;;;;5054192;28;20033;-53
2021/11/06 00:15:02;;;;;;;28.00;18.48;;;;;;;;;;5054301;28;20017;-54
2021/11/06 00:17:28;;;;;;;27.58;17.98;;;;;;;;;;5054373;28;20025;-53
2021/11/06 00:19:54;;;;;;;41.42;23.13;;;;;;;;;;5053707;28;20021;-53
2021/11/06 00:22:21;;;;;;;33.13;19.30;;;;;;;;;;5053787;28;20025;-53
2021/11/06 00:24:47;;;;;;;32.85;20.17;;;;;;;;;;5053567;28;20389;-53
2021/11/06 00:27:15;;;;;;;24.60;16.58;;;;;;;;;;5053981;28;20028;-54
2021/11/06 00:29:42;;;;;;;32.67;21.95;;;;;;;;;;5053889;28;20033;-53
2021/11/06 00:32:08;;;;;;;44.10;24.73;;;;;;;;;;5052108;28;20409;-53
2021/11/06 00:34:35;;;;;;;34.25;20.67;;;;;;;;;;5053667;28;20028;-53
2021/11/06 00:37:01;;;;;;;50.90;32.17;;;;;;;;;;5053814;28;20441;-53
2021/11/06 00:39:27;;;;;;;48.90;29.92;;;;;;;;;;5053866;28;20382;-53
2021/11/06 00:41:55;;;;;;;31.45;19.58;;;;;;;;;;5053017;28;20036;-53
2021/11/06 00:44:22;;;;;;;23.67;15.93;;;;;;;;;;5053194;28;20029;-53
2021/11/06 00:46:49;;;;;;;28.70;19.42;;;;;;;;;;5053889;28;20389;-53
2021/11/06 00:49:15;;;;;;;23.35;16.77;;;;;;;;;;5053786;28;20024;-53
2021/11/06 00:51:41;;;;;;;30.92;20.73;;;;;;;;;;5053491;28;20043;-53
2021/11/06 00:54:07;;;;;;;25.38;17.67;;;;;;;;;;5053961;28;20021;-53
2021/11/06 00:56:33;;;;;;;24.38;15.63;;;;;;;;;;5053561;28;20031;-54
2021/11/06 00:59:02;;;;;;;30.88;20.02;;;;;;;;;;5053632;28;20020;-54
2021/11/06 01:01:28;;;;;;;26.88;17.80;;;;;;;;;;5053336;28;20123;-53
2021/11/06 01:03:55;;;;;;;27.65;18.42;;;;;;;;;;5053514;28;20051;-53
2021/11/06 01:06:22;;;;;;;28.55;16.13;;;;;;;;;;5053511;28;20397;-54
2021/11/06 01:08:49;;;;;;;27.85;18.17;;;;;;;;;;5053496;28;20032;-54
2021/11/06 01:11:15;;;;;;;28.35;19.05;;;;;;;;;;5053298;28;20031;-54
2021/11/06 01:13:41;;;;;;;29.58;20.13;;;;;;;;;;5053341;28;20107;-54
2021/11/06 01:16:08;;;;;;;33.78;22.27;;;;;;;;;;5053792;28;20032;-55
2021/11/06 01:18:35;;;;;;;29.63;19.55;;;;;;;;;;5053347;28;20040;-56
2021/11/06 01:21:01;;;;;;;29.58;19.90;;;;;;;;;;5053376;28;20021;-55
2021/11/06 01:23:29;;;;;;;30.35;20.50;;;;;;;;;;5053575;28;20055;-54
2021/11/06 01:25:56;;;;;;;21.13;15.43;;;;;;;;;;5053133;28;20020;-54
2021/11/06 01:28:22;;;;;;;26.45;16.13;;;;;;;;;;5053101;28;20079;-53
2021/11/06 01:30:49;;;;;;;24.80;16.35;;;;;;;;;;5053075;28;20021;-54
2021/11/06 01:33:15;;;;;;;24.00;17.17;;;;;;;;;;5053228;28;20068;-54
2021/11/06 01:35:41;;;;;;;25.13;16.52;;;;;;;;;;5053215;28;20025;-53
2021/11/06 01:38:08;;;;;;;20.27;14.55;;;;;;;;;;5053278;28;20096;-54
2021/11/06 01:40:34;;;;;;;22.50;16.05;;;;;;;;;;5053128;28;20025;-54
2021/11/06 01:43:00;;;;;;;28.08;17.10;;;;;;;;;;5053141;28;20025;-54
2021/11/06 01:45:26;;;;;;;27.67;18.42;;;;;;;;;;5053045;28;20028;-54
2021/11/06 01:47:52;;;;;;;30.23;18.27;;;;;;;;;;5052976;28;20024;-54
2021/11/06 01:50:20;;;;;;;28.95;18.48;;;;;;;;;;5052832;28;20021;-53
2021/11/06 01:52:46;;;;;;;28.42;19.08;;;;;;;;;;5052637;28;20037;-53
2021/11/06 01:55:13;;;;;;;25.75;16.85;;;;;;;;;;5052913;28;20072;-53
2021/11/06 01:57:39;;;;;;;22.65;15.73;;;;;;;;;;5052693;28;20495;-54
2021/11/06 02:00:10;;;;;;;22.83;15.80;;;;;;;;;;5052838;28;20027;-54
2021/11/06 02:02:36;;;;;;;21.70;16.00;;;;;;;;;;5052692;28;20057;-54
2021/11/06 02:05:02;;;;;;;22.52;16.50;;;;;;;;;;5052828;28;20028;-53
2021/11/06 02:07:29;;;;;;;25.80;17.30;;;;;;;;;;5052725;28;20017;-54
2021/11/06 02:09:55;;;;;;;18.30;13.70;;;;;;;;;;5052763;28;20411;-53
2021/11/06 02:12:21;;;;;;;26.00;17.15;;;;;;;;;;5052643;28;20033;-54
2021/11/06 02:14:47;;;;;;;23.35;14.85;;;;;;;;;;5052720;28;20029;-54
2021/11/06 02:17:16;;;;;;;23.13;16.50;;;;;;;;;;5052678;28;20477;-54
2021/11/06 02:19:42;;;;;;;21.48;14.00;;;;;;;;;;5052752;28;20111;-55
2021/11/06 02:22:08;;;;;;;21.33;14.68;;;;;;;;;;5052607;28;20028;-54
2021/11/06 02:24:35;;;;;;;20.00;13.30;;;;;;;;;;5052682;28;20025;-54
2021/11/06 02:27:01;;;;;;;19.67;15.20;;;;;;;;;;5052829;28;20040;-54
2021/11/06 02:29:27;;;;;;;20.27;13.95;;;;;;;;;;5052600;28;20023;-54
2021/11/06 02:31:53;;;;;;;24.95;16.33;;;;;;;;;;5052576;28;20481;-55
2021/11/06 02:34:19;;;;;;;20.85;14.77;;;;;;;;;;5052764;28;20374;-54
2021/11/06 02:36:46;;;;;;;19.30;14.07;;;;;;;;;;5052450;28;20066;-54
2021/11/06 02:39:12;;;;;;;21.52;14.52;;;;;;;;;;5054257;28;20109;-54
2021/11/06 02:41:38;;;;;;;18.63;13.35;;;;;;;;;;5056089;28;20017;-54
2021/11/06 02:44:12;;;;;;;18.10;13.57;;;;;;;;;;5056036;28;20079;-54
2021/11/06 02:46:39;;;;;;;18.75;14.75;;;;;;;;;;5056137;28;20487;-54
2021/11/06 02:49:06;;;;;;;22.23;14.95;;;;;;;;;;5056162;28;20067;-54
2021/11/06 02:51:33;;;;;;;21.00;15.65;;;;;;;;;;5055741;28;20037;-54
2021/11/06 02:53:59;;;;;;;22.25;15.07;;;;;;;;;;5055969;28;20021;-54
2021/11/06 02:56:26;;;;;;;23.90;16.30;;;;;;;;;;5056014;28;20557;-54
2021/11/06 02:58:53;;;;;;;20.73;14.45;;;;;;;;;;5055732;28;20033;-54
2021/11/06 03:01:19;;;;;;;18.58;14.50;;;;;;;;;;5055605;28;20090;-54
2021/11/06 03:03:48;;;;;;;20.95;15.52;;;;;;;;;;5055688;28;20037;-54
2021/11/06 03:06:14;;;;;;;21.50;15.65;;;;;;;;;;5055855;28;20146;-54
2021/11/06 03:08:40;;;;;;;21.33;15.98;;;;;;;;;;5055675;28;20032;-54
2021/11/06 03:11:09;;;;;;;26.73;17.40;;;;;;;;;;5055479;28;20017;-53
2021/11/06 03:13:36;;;;;;;18.05;13.18;;;;;;;;;;5055521;28;20036;-54
2021/11/06 03:16:02;;;;;;;18.20;13.55;;;;;;;;;;5055425;28;20496;-54
2021/11/06 03:18:29;;;;;;;19.42;14.45;;;;;;;;;;5055506;28;20033;-55
2021/11/06 03:20:57;;;;;;;19.23;13.60;;;;;;;;;;5055303;28;20025;-54
2021/11/06 03:23:27;;;;;;;22.17;15.63;;;;;;;;;;5055572;28;20024;-54
2021/11/06 03:25:58;;;;;;;18.35;13.65;;;;;;;;;;5053619;28;20120;-54
2021/11/06 03:28:25;;;;;;;19.63;13.95;;;;;;;;;;5055334;28;20025;-53
2021/11/06 03:30:51;;;;;;;19.92;14.57;;;;;;;;;;5055101;28;20074;-54
2021/11/06 03:33:23;;;;;;;18.15;14.13;;;;;;;;;;5055193;28;20170;-54
2021/11/06 03:35:49;;;;;;;19.38;13.95;;;;;;;;;;5055347;28;20018;-54
2021/11/06 03:38:17;;;;;;;21.92;13.73;;;;;;;;;;5055148;28;20112;-53
2021/11/06 03:40:44;;;;;;;20.48;14.07;;;;;;;;;;5055008;28;20055;-54
2021/11/06 03:43:10;;;;;;;21.60;13.85;;;;;;;;;;5055233;28;20036;-54
2021/11/06 03:45:36;;;;;;;16.98;13.75;;;;;;;;;;5055154;28;20025;-54
2021/11/06 03:48:03;;;;;;;20.05;13.68;;;;;;;;;;5055072;28;20447;-54
2021/11/06 03:50:29;;;;;;;20.10;13.23;;;;;;;;;;5054540;28;20074;-54
2021/11/06 03:52:55;;;;;;;18.70;13.45;;;;;;;;;;5054676;28;20033;-54
2021/11/06 03:55:21;;;;;;;18.23;11.73;;;;;;;;;;5054750;28;20025;-53
2021/11/06 03:57:47;;;;;;;21.85;12.90;;;;;;;;;;5054691;28;20029;-54
2021/11/06 04:00:15;;;;;;;16.67;12.65;;;;;;;;;;5054705;28;20084;-54
2021/11/06 04:02:45;;;;;;;16.45;12.43;;;;;;;;;;5054601;28;20064;-54
2021/11/06 04:05:14;;;;;;;17.80;11.30;;;;;;;;;;5054650;28;20039;-53
2021/11/06 04:07:40;;;;;;;19.05;12.70;;;;;;;;;;5054554;28;20036;-54
2021/11/06 04:10:07;;;;;;;19.00;14.27;;;;;;;;;;5054407;28;20073;-53
2021/11/06 04:12:35;;;;;;;17.58;13.80;;;;;;;;;;5054349;28;20029;-54
2021/11/06 04:15:06;;;;;;;16.92;13.57;;;;;;;;;;5054587;28;20074;-54
2021/11/06 04:17:35;;;;;;;22.23;12.77;;;;;;;;;;5054327;28;20457;-54
2021/11/06 04:20:01;;;;;;;19.13;12.85;;;;;;;;;;5054317;28;20017;-54
2021/11/06 04:22:27;;;;;;;28.15;19.70;;;;;;;;;;5054107;28;20075;-53
2021/11/06 04:24:53;;;;;;;21.55;14.23;;;;;;;;;;5053925;28;20435;-53
2021/11/06 04:27:19;;;;;;;19.25;13.13;;;;;;;;;;5054076;28;20025;-53
2021/11/06 04:29:45;;;;;;;17.65;13.00;;;;;;;;;;5054136;28;20114;-54
2021/11/06 04:32:11;;;;;;;20.27;14.75;;;;;;;;;;5053880;28;20089;-53
2021/11/06 04:34:40;;;;;;;30.83;21.73;;;;;;;;;;5053918;28;20377;-53
2021/11/06 04:37:06;;;;;;;58.08;35.83;;;;;;;;;;5053868;28;20163;-53
2021/11/06 04:39:32;;;;;;;45.75;28.27;;;;;;;;;;5053824;28;20028;-53
2021/11/06 04:41:58;;;;;;;52.50;32.25;;;;;;;;;;5053792;28;20381;-53
2021/11/06 04:44:25;;;;;;;28.85;19.20;;;;;;;;;;5053774;28;20066;-53
2021/11/06 04:46:51;;;;;;;37.38;22.58;;;;;;;;;;5053706;28;20025;-53
2021/11/06 04:49:19;;;;;;;51.42;30.67;;;;;;;;;;5053621;28;20444;-53
2021/11/06 04:51:48;;;;;;;27.42;16.98;;;;;;;;;;5053613;28;20025;-53
2021/11/06 04:54:14;;;;;;;30.27;16.58;;;;;;;;;;5053481;28;20481;-53
2021/11/06 04:56:40;;;;;;;36.42;22.90;;;;;;;;;;5053667;28;20100;-53
2021/11/06 04:59:06;;;;;;;54.35;32.05;;;;;;;;;;5053412;28;20021;-53
2021/11/06 05:01:32;;;;;;;42.08;26.23;;;;;;;;;;5052432;28;20043;-53
2021/11/06 05:04:01;;;;;;;29.67;19.85;;;;;;;;;;5053438;28;20082;-53
2021/11/06 05:06:30;;;;;;;29.80;18.08;;;;;;;;;;5053446;28;20017;-53
2021/11/06 05:08:56;;;;;;;24.63;13.85;;;;;;;;;;5053356;28;20087;-53
2021/11/06 05:11:22;;;;;;;29.27;16.50;;;;;;;;;;5053108;28;20020;-54
2021/11/06 05:13:51;;;;;;;35.92;20.67;;;;;;;;;;5052725;28;20469;-54
2021/11/06 05:16:17;;;;;;;18.40;13.90;;;;;;;;;;5052828;28;20029;-54
2021/11/06 05:18:44;;;;;;;25.67;15.45;;;;;;;;;;5052836;28;20021;-55
2021/11/06 05:21:10;;;;;;;22.52;14.65;;;;;;;;;;5052900;28;20052;-54
2021/11/06 05:23:36;;;;;;;24.95;16.77;;;;;;;;;;5052489;28;20024;-54
2021/11/06 05:26:03;;;;;;;44.03;26.80;;;;;;;;;;5052695;28;20028;-54
2021/11/06 05:28:29;;;;;;;32.28;20.80;;;;;;;;;;5052952;28;20024;-54
2021/11/06 05:30:55;;;;;;;35.72;21.15;;;;;;;;;;5052802;28;20024;-54
2021/11/06 05:33:21;;;;;;;28.08;17.83;;;;;;;;;;5049796;28;20086;-54
2021/11/06 05:35:47;;;;;;;34.75;20.73;;;;;;;;;;5052244;28;20051;-53
2021/11/06 05:38:13;;;;;;;39.00;23.95;;;;;;;;;;5052480;28;20039;-54
2021/11/06 05:40:39;;;;;;;20.88;13.52;;;;;;;;;;5053172;28;20368;-54
2021/11/06 05:43:05;;;;;;;25.77;16.52;;;;;;;;;;5053119;28;20017;-54
2021/11/06 05:45:32;;;;;;;30.52;20.55;;;;;;;;;;5053090;28;20082;-54
2021/11/06 05:47:58;;;;;;;25.48;15.73;;;;;;;;;;5053013;28;20025;-55
2021/11/06 05:50:26;;;;;;;27.90;15.45;;;;;;;;;;5053235;28;20053;-54
2021/11/06 05:52:55;;;;;;;21.00;14.52;;;;;;;;;;5051875;28;20044;-54
2021/11/06 05:55:21;;;;;;;15.00;11.98;;;;;;;;;;5053291;28;20020;-54
2021/11/06 05:57:47;;;;;;;19.70;14.45;;;;;;;;;;5052980;28;20049;-54
2021/11/06 06:00:15;;;;;;;25.08;15.00;;;;;;;;;;5052853;28;20021;-54
2021/11/06 06:02:42;;;;;;;20.15;12.80;;;;;;;;;;5052543;28;20053;-54
2021/11/06 06:05:08;;;;;;;24.45;15.18;;;;;;;;;;5052229;28;20025;-54
2021/11/06 06:07:35;;;;;;;32.22;19.63;;;;;;;;;;5052260;28;20025;-54
2021/11/06 06:10:01;;;;;;;33.70;19.27;;;;;;;;;;5052187;28;20131;-54
2021/11/06 06:12:27;;;;;;;31.08;18.70;;;;;;;;;;5052853;28;20074;-54
2021/11/06 06:14:54;;;;;;;31.27;18.35;;;;;;;;;;5056083;28;20150;-54
2021/11/06 06:17:20;;;;;;;36.38;21.08;;;;;;;;;;5055921;28;20461;-53
2021/11/06 06:19:53;;;;;;;27.77;18.30;;;;;;;;;;5054782;28;20388;-54
2021/11/06 06:22:19;;;;;;;25.20;16.25;;;;;;;;;;5055902;28;20021;-54
2021/11/06 06:24:48;;;;;;;20.92;15.05;;;;;;;;;;5055821;28;20025;-54
2021/11/06 06:27:15;;;;;;;26.05;16.67;;;;;;;;;;5055928;28;20009;-54
2021/11/06 06:29:41;;;;;;;25.38;17.13;;;;;;;;;;5055710;28;20028;-54
2021/11/06 06:32:07;;;;;;;25.25;15.90;;;;;;;;;;5055759;28;20025;-54
2021/11/06 06:34:33;;;;;;;31.23;18.63;;;;;;;;;;5055693;28;20056;-54
2021/11/06 06:36:59;;;;;;;28.02;18.23;;;;;;;;;;5055569;28;20024;-54
2021/11/06 06:39:26;;;;;;;25.85;16.48;;;;;;;;;;5055612;28;20029;-55
2021/11/06 06:41:52;;;;;;;24.85;16.25;;;;;;;;;;5055705;28;20021;-54
2021/11/06 06:44:18;;;;;;;29.95;19.27;;;;;;;;;;5055522;28;20059;-54
2021/11/06 06:46:44;;;;;;;26.70;17.00;;;;;;;;;;5052487;28;20111;-54
2021/11/06 06:49:10;;;;;;;22.90;14.63;;;;;;;;;;5055842;28;20057;-54
2021/11/06 06:51:37;;;;;;;27.70;15.20;;;;;;;;;;5055832;28;20108;-54
2021/11/06 06:54:03;;;;;;;26.52;16.42;;;;;;;;;;5055499;28;20085;-53
2021/11/06 06:56:29;;;;;;;20.80;13.15;;;;;;;;;;5055907;28;20029;-54
2021/11/06 06:58:55;;;;;;;20.50;13.43;;;;;;;;;;5056100;28;20029;-54
2021/11/06 07:01:21;;;;;;;21.90;13.77;;;;;;;;;;5055403;28;20037;-53
2021/11/06 07:03:47;;;;;;;21.02;14.52;;;;;;;;;;5056056;28;20083;-54
2021/11/06 07:06:14;;;;;;;23.58;14.75;;;;;;;;;;5055707;28;20509;-54
2021/11/06 07:08:40;;;;;;;27.63;14.35;;;;;;;;;;5055503;28;20033;-54
2021/11/06 07:11:06;;;;;;;22.33;15.70;;;;;;;;;;5055585;28;20532;-54
2021/11/06 07:13:35;;;;;;;25.83;15.30;;;;;;;;;;5055333;28;20037;-54
2021/11/06 07:16:02;;;;;;;24.67;15.60;;;;;;;;;;5055691;28;20370;-54
2021/11/06 07:18:28;;;;;;;24.20;15.20;;;;;;;;;;5055588;28;20031;-54
2021/11/06 07:20:56;;;;;;;25.48;16.42;;;;;;;;;;5055298;28;20024;-54
2021/11/06 07:23:22;;;;;;;30.38;19.55;;;;;;;;;;5055183;28;20029;-54
2021/11/06 07:25:49;;;;;;;20.77;15.13;;;;;;;;;;5054393;28;20389;-54
2021/11/06 07:28:15;;;;;;;35.47;20.05;;;;;;;;;;5055249;28;20021;-54
2021/11/06 07:30:44;;;;;;;22.15;16.15;;;;;;;;;;5055153;28;20032;-54
2021/11/06 07:33:10;;;;;;;24.00;14.90;;;;;;;;;;5055154;28;20512;-53
2021/11/06 07:35:37;;;;;;;30.38;19.63;;;;;;;;;;5055173;28;20025;-53
2021/11/06 07:38:03;;;;;;;25.08;15.85;;;;;;;;;;5054795;28;20492;-54
2021/11/06 07:40:29;;;;;;;20.83;14.10;;;;;;;;;;5054964;28;20032;-54
2021/11/06 07:42:55;;;;;;;24.10;15.82;;;;;;;;;;5055129;28;20051;-53
2021/11/06 07:45:22;;;;;;;27.55;18.60;;;;;;;;;;5054832;28;20108;-54
2021/11/06 07:47:49;;;;;;;23.10;15.75;;;;;;;;;;5054847;28;20544;-54
2021/11/06 07:50:15;;;;;;;40.72;24.33;;;;;;;;;;5054964;28;20024;-54
2021/11/06 07:52:43;;;;;;;27.85;16.58;;;;;;;;;;5054633;28;20033;-53
2021/11/06 07:55:10;;;;;;;41.97;21.15;;;;;;;;;;5054752;28;20412;-53
2021/11/06 07:57:36;;;;;;;37.17;24.02;;;;;;;;;;5054881;28;20048;-53
2021/11/06 08:00:04;;;;;;;23.00;15.98;;;;;;;;;;5054393;28;20029;-53
2021/11/06 08:02:30;;;;;;;21.80;15.57;;;;;;;;;;5054248;28;20060;-53
2021/11/06 08:04:56;;;;;;;27.10;18.55;;;;;;;;;;5054550;28;20037;-53
2021/11/06 08:07:22;;;;;;;33.60;20.90;;;;;;;;;;5053869;28;20071;-52
2021/11/06 08:09:51;;;;;;;27.08;17.90;;;;;;;;;;5054368;28;20029;-53
2021/11/06 08:12:20;;;;;;;24.73;15.82;;;;;;;;;;5054438;28;20416;-52
2021/11/06 08:14:46;;;;;;;25.27;16.75;;;;;;;;;;5054357;28;20024;-53
2021/11/06 08:17:13;;;;;;;23.17;15.68;;;;;;;;;;5054591;28;20018;-53
2021/11/06 08:19:39;;;;;;;24.00;17.35;;;;;;;;;;5042701;28;20535;-52
2021/11/06 08:22:05;;;;;;;20.85;14.95;;;;;;;;;;5026915;28;21067;-52
2021/11/06 08:24:31;;;;;;;165.00;113.32;;;;;;;;;;5026237;28;20112;-52
2021/11/06 08:26:57;;;;;;;36.42;25.00;;;;;;;;;;5048473;28;20147;-54
2021/11/06 08:29:29;;;;;;;30.25;18.95;;;;;;;;;;5054026;28;20029;-53
2021/11/06 08:32:00;;;;;;;;;;;;;;;;;;5054310;28;20029;-54
2021/11/06 08:34:29;;;;;;;23.58;14.48;;;;;;;;;;5053909;28;19917;-53
2021/11/06 08:36:56;;;;;;;23.45;15.13;;;;;;;;;;5053870;28;20013;-53
2021/11/06 08:39:23;;;;;;;21.00;12.90;;;;;;;;;;5053792;28;20029;-55
2021/11/06 08:41:49;;;;;;;24.20;15.23;;;;;;;;;;5053995;28;20017;-54
2021/11/06 08:44:18;;;;;;;25.83;18.05;;;;;;;;;;5053643;28;20025;-54
2021/11/06 08:46:46;;;;;;;16.52;11.52;;;;;;;;;;5053849;28;20104;-53
2021/11/06 08:49:13;;;;;;;22.65;15.27;;;;;;;;;;5053779;28;20020;-53
2021/11/06 08:51:40;;;;;;;20.30;13.23;;;;;;;;;;5053814;28;20021;-53
2021/11/06 08:54:08;;;;;;;21.08;12.85;;;;;;;;;;5053489;28;20095;-53
2021/11/06 08:56:34;;;;;;;19.35;13.32;;;;;;;;;;5053398;28;20028;-53
2021/11/06 08:59:00;;;;;;;17.35;12.27;;;;;;;;;;5053665;28;20078;-53
2021/11/06 09:01:27;;;;;;;16.08;12.07;;;;;;;;;;5053261;28;20045;-53
2021/11/06 09:03:58;;;;;;;20.95;12.07;;;;;;;;;;5053589;28;20025;-53
2021/11/06 09:06:26;;;;;;;13.63;9.48;;;;;;;;;;5053402;28;20070;-54
2021/11/06 09:08:54;;;;;;;15.43;11.23;;;;;;;;;;5052943;28;20055;-53
2021/11/06 09:11:21;;;;;;;18.63;14.65;;;;;;;;;;5053575;28;20108;-53
2021/11/06 09:13:53;;;;;;;13.95;10.88;;;;;;;;;;5053415;28;20400;-53
2021/11/06 09:16:19;;;;;;;17.45;12.00;;;;;;;;;;5053361;28;20049;-53
2021/11/06 09:18:46;;;;;;;15.63;10.82;;;;;;;;;;5053220;28;20420;-52
2021/11/06 09:21:14;;;;;;;17.40;11.73;;;;;;;;;;5053666;28;20067;-53
2021/11/06 09:23:41;;;;;;;16.00;11.60;;;;;;;;;;5053141;28;20025;-52
2021/11/06 09:26:07;;;;;;;20.30;11.85;;;;;;;;;;5053524;28;20057;-52
2021/11/06 09:28:40;;;;;;;20.90;11.25;;;;;;;;;;5053201;28;20032;-52
2021/11/06 09:31:06;;;;;;;23.73;14.07;;;;;;;;;;5053195;28;20112;-54
2021/11/06 09:33:32;;;;;;;17.75;11.88;;;;;;;;;;5053156;28;20040;-54
2021/11/06 09:35:59;;;;;;;18.33;13.00;;;;;;;;;;5053028;28;20014;-54
2021/11/06 09:38:25;;;;;;;21.45;14.45;;;;;;;;;;5052981;28;20025;-54
2021/11/06 09:40:51;;;;;;;18.83;13.73;;;;;;;;;;5052871;28;20025;-52
2021/11/06 09:43:17;;;;;;;18.55;11.82;;;;;;;;;;5053010;28;20087;-52
2021/11/06 09:45:44;;;;;;;18.35;11.45;;;;;;;;;;5052338;28;20388;-51
2021/11/06 09:48:11;;;;;;;17.60;12.25;;;;;;;;;;5054500;28;20473;-53
2021/11/06 09:50:37;;;;;;;16.00;11.43;;;;;;;;;;5057009;28;20017;-52
2021/11/06 09:53:03;;;;;;;20.50;12.13;;;;;;;;;;5056888;28;20029;-53
2021/11/06 09:55:32;;;;;;;13.63;9.98;;;;;;;;;;5057049;28;20044;-53
2021/11/06 09:57:58;;;;;;;14.20;10.18;;;;;;;;;;5056933;28;20469;-53
2021/11/06 10:00:24;;;;;;;17.27;11.05;;;;;;;;;;5056867;28;20021;-53
2021/11/06 10:02:56;;;;;;;16.48;10.70;;;;;;;;;;5056720;28;20128;-53
2021/11/06 10:05:22;;;;;;;;;;;;;;;;;;5057068;28;20037;-53
2021/11/06 10:07:48;;;;;;;16.15;11.30;;;;;;;;;;5056925;28;19911;-53
2021/11/06 10:10:15;;;;;;;18.27;13.27;;;;;;;;;;5056687;28;20036;-53
2021/11/06 10:12:46;;;;;;;22.08;14.70;;;;;;;;;;5056603;28;22060;-53
2021/11/06 10:15:13;;;;;;;24.38;17.10;;;;;;;;;;5056487;28;20032;-52
2021/11/06 10:17:39;;;;;;;15.75;11.15;;;;;;;;;;5056630;28;20029;-52
2021/11/06 10:20:25;;;;;;;13.85;10.25;;;;;;;;;;5056330;28;20069;-52
2021/11/06 10:22:52;;;;;;;17.05;12.35;;;;;;;;;;5056638;28;20063;-52
2021/11/06 10:25:21;;;;;;;18.50;11.27;;;;;;;;;;5056548;28;20025;-52
2021/11/06 10:27:54;;;;;;;24.13;11.15;;;;;;;;;;5056473;28;20385;-53
2021/11/06 10:30:24;;;;;;;20.25;10.85;;;;;;;;;;5056150;28;20393;-52
2021/11/06 10:32:56;;;;;;;16.48;11.57;;;;;;;;;;5056433;28;20044;-53
2021/11/06 10:35:25;;;;;;;16.17;9.77;;;;;;;;;;5056260;28;20547;-53
2021/11/06 10:38:01;;;;;;;18.05;9.43;;;;;;;;;;5056106;28;20071;-53
2021/11/06 10:40:30;;;;;;;15.60;10.90;;;;;;;;;;5056243;28;20021;-53
2021/11/06 10:42:57;;;;;;;15.52;10.82;;;;;;;;;;5056015;28;20049;-53
2021/11/06 10:45:26;;;;;;;53.00;13.20;;;;;;;;;;5056264;28;20021;-50
2021/11/06 10:48:03;;;;;;;18.08;12.70;;;;;;;;;;5056064;28;20104;-54
2021/11/06 10:52:02;;;;;;;19.48;11.55;;;;;;;;;;5070941;28;20448;-52
2021/11/06 10:54:28;;;;;;;18.52;11.40;;;;;;;;;;5070474;28;20029;-52
2021/11/06 10:56:56;;;;;;;17.58;11.55;;;;;;;;;;5070792;28;20021;-51
2021/11/06 10:59:23;;;;;;;16.33;11.60;;;;;;;;;;5070569;28;20109;-52
2021/11/06 11:01:53;;;;;;;15.07;10.07;;;;;;;;;;5070344;28;20039;-53
2021/11/06 11:04:20;;;;;;;17.88;9.75;;;;;;;;;;5069122;28;20027;-51
2021/11/06 11:06:48;;;;;;;18.73;12.35;;;;;;;;;;5070496;28;20021;-54
2021/11/06 11:09:19;;;;;;;19.65;12.73;;;;;;;;;;5070409;28;20082;-54
2021/11/06 11:11:45;;;;;;;23.40;14.02;;;;;;;;;;5070218;28;20062;-54
2021/11/06 11:14:14;;;;;;;17.88;12.85;;;;;;;;;;5070310;28;20404;-53
2021/11/06 11:16:55;;;;;;;40.38;24.38;;;;;;;;;;5070196;28;20028;-54
2021/11/06 11:19:41;;;;;;;25.33;13.30;;;;;;;;;;5070328;28;20025;-53
2021/11/06 11:22:08;;;;;;;15.75;10.70;;;;;;;;;;5070081;28;20036;-53
2021/11/06 11:24:37;;;;;;;14.00;10.27;;;;;;;;;;5070403;28;20059;-54
2021/11/06 11:27:03;;;;;;;14.13;10.55;;;;;;;;;;5069938;28;20032;-54
2021/11/06 11:29:32;;;;;;;15.88;10.75;;;;;;;;;;5070174;28;20025;-55
2021/11/06 11:31:59;;;;;;;15.63;11.57;;;;;;;;;;5069976;28;20041;-51
2021/11/06 11:34:27;;;;;;;20.38;12.45;;;;;;;;;;5069815;28;20017;-53
2021/11/06 11:36:54;;;;;;;18.55;11.10;;;;;;;;;;5069920;28;20518;-60
2021/11/06 11:39:22;;;;;;;18.58;11.07;;;;;;;;;;5069753;28;20124;-60
2021/11/06 11:42:07;;;;;;;18.02;11.02;;;;;;;;;;5069695;28;20470;-55
2021/11/06 11:44:39;;;;;;;17.45;10.30;;;;;;;;;;5069191;28;20025;-53
2021/11/06 11:47:09;;;;;;;17.15;10.85;;;;;;;;;;5069066;28;20468;-54
2021/11/06 11:49:39;;;;;;;15.98;11.45;;;;;;;;;;5065971;28;20028;-54
2021/11/06 11:52:29;;;;;;;19.20;12.20;;;;;;;;;;5069084;28;20033;-54
2021/11/06 11:54:59;;;;;;;19.83;12.65;;;;;;;;;;5068821;28;20024;-54
2021/11/06 11:57:28;;;;;;;22.63;14.48;;;;;;;;;;5068858;28;20028;-54
2021/11/06 11:59:55;;;;;;;24.58;14.90;;;;;;;;;;5068738;28;20016;-51
2021/11/06 12:02:23;;;;;;;23.23;14.75;;;;;;;;;;5061001;28;20040;-54
2021/11/06 12:05:09;;;;;;;23.20;14.05;;;;;;;;;;5056100;28;20412;-53
2021/11/06 12:07:35;;;;;;;23.88;14.88;;;;;;;;;;5055409;28;20024;-52
2021/11/06 12:10:35;;;;;;;27.25;15.65;;;;;;;;;;5055667;28;20021;-54
2021/11/06 12:13:02;;;;;;;29.23;18.15;;;;;;;;;;5013571;28;20040;-51
2021/11/06 12:15:47;;;;;;;34.25;21.60;;;;;;;;;;5013303;28;20061;-54
2021/11/06 12:18:31;;;;;;;22.13;15.02;;;;;;;;;;5010768;28;20037;-54
2021/11/06 12:21:25;;;;;;;19.65;12.95;;;;;;;;;;5013810;28;20034;-55
2021/11/06 12:24:09;;;;;;;25.52;15.70;;;;;;;;;;5011187;28;20042;-54
2021/11/06 12:26:46;;;;;;;23.92;16.63;;;;;;;;;;5013866;28;20036;-53
2021/11/06 12:29:17;;;;;;;23.30;16.77;;;;;;;;;;5013773;28;20037;-51
2021/11/06 12:31:59;;;;;;;21.30;13.80;;;;;;;;;;5013747;28;20036;-51
2021/11/06 12:34:34;;;;;;;19.33;12.18;;;;;;;;;;4997127;28;20447;-52
2021/11/06 12:37:01;;;;;;;20.70;13.15;;;;;;;;;;5013511;28;20041;-53
2021/11/06 12:39:46;;;;;;;29.90;15.95;;;;;;;;;;5013511;28;20022;-52
2021/11/06 12:42:13;;;;;;;28.60;18.20;;;;;;;;;;5013508;28;20417;-54
2021/11/06 12:45:12;;;;;;;30.33;17.27;;;;;;;;;;5013837;28;20134;-51
2021/11/06 12:47:41;;;;;;;24.00;15.32;;;;;;;;;;5002242;28;20625;-51
2021/11/06 12:50:17;;;;;;;20.55;13.18;;;;;;;;;;5054985;28;20099;-53
2021/11/06 12:52:43;;;;;;;15.45;11.27;;;;;;;;;;5055350;28;20021;-52
2021/11/06 12:55:10;;;;;;;22.15;12.57;;;;;;;;;;5055064;28;20070;-54
2021/11/06 12:57:41;;;;;;;16.48;12.27;;;;;;;;;;5054985;28;20029;-51
2021/11/06 13:00:08;;;;;;;20.33;12.35;;;;;;;;;;5054983;28;20452;-54
2021/11/06 13:03:07;;;;;;;16.38;11.13;;;;;;;;;;5054868;28;20032;-57
2021/11/06 13:05:41;;;;;;;14.93;10.32;;;;;;;;;;5013315;28;20512;-51
2021/11/06 13:08:20;;;;;;;15.20;10.50;;;;;;;;;;5013014;28;20034;-54
2021/11/06 13:10:47;;;;;;;19.42;11.50;;;;;;;;;;5013444;28;20050;-54
2021/11/06 13:13:15;;;;;;;15.23;11.27;;;;;;;;;;5012285;28;20386;-54
2021/11/06 13:15:43;;;;;;;16.38;11.80;;;;;;;;;;5012845;28;20061;-53
2021/11/06 13:18:18;;;;;;;28.70;19.20;;;;;;;;;;5013175;28;20026;-54
2021/11/06 13:20:48;;;;;;;25.33;18.10;;;;;;;;;;5012658;28;20072;-54
2021/11/06 13:23:17;;;;;;;22.38;15.23;;;;;;;;;;5013161;28;20022;-54
2021/11/06 13:25:44;;;;;;;20.52;14.93;;;;;;;;;;5012775;28;20456;-51
2021/11/06 13:28:13;;;;;;;24.95;15.07;;;;;;;;;;5012723;28;20030;-53
2021/11/06 13:30:47;;;;;;;16.77;12.23;;;;;;;;;;5012670;28;20037;-53
2021/11/06 13:33:21;;;;;;;16.55;11.13;;;;;;;;;;5012764;28;20025;-53
2021/11/06 13:35:53;;;;;;;25.60;13.32;;;;;;;;;;5012646;28;20544;-53
2021/11/06 13:38:24;;;;;;;24.38;14.07;;;;;;;;;;5011874;28;20160;-53
2021/11/06 13:40:56;;;;;;;26.50;15.55;;;;;;;;;;5012768;28;20037;-51
2021/11/06 13:43:23;;;;;;;26.38;17.63;;;;;;;;;;5051206;28;20013;-52
2021/11/06 13:46:11;;;;;;;31.67;19.02;;;;;;;;;;5053423;28;20104;-53
2021/11/06 13:48:40;;;;;;;33.30;20.85;;;;;;;;;;5053195;28;20028;-54
2021/11/06 13:51:14;;;;;;;39.55;22.33;;;;;;;;;;5053138;28;20076;-52
2021/11/06 13:53:40;;;;;;;31.50;21.52;;;;;;;;;;5050671;28;20461;-54
2021/11/06 13:56:07;;;;;;;57.15;33.60;;;;;;;;;;5053326;28;20469;-52
2021/11/06 13:58:33;;;;;;;42.00;26.63;;;;;;;;;;5053536;28;20021;-51
2021/11/06 14:00:59;;;;;;;35.47;23.50;;;;;;;;;;5053737;28;20104;-53
2021/11/06 14:03:25;;;;;;;34.42;22.38;;;;;;;;;;5036411;28;20029;-51
2021/11/06 14:05:52;;;;;;;39.83;23.92;;;;;;;;;;5026068;28;20140;-51
2021/11/06 14:08:18;;;;;;;89.80;39.53;;;;;;;;;;5026787;28;20038;-52
2021/11/06 14:10:44;;;;;;;97.32;39.72;;;;;;;;;;5024970;28;20039;-50
2021/11/06 14:13:17;;;;;;;107.90;47.28;;;;;;;;;;5024072;28;20031;-51
2021/11/06 14:15:46;;;;;;;112.60;46.60;;;;;;;;;;5024131;28;21125;-52
2021/11/06 14:18:32;;;;;;;66.38;33.45;;;;;;;;;;5025031;28;20032;-51
2021/11/06 14:21:07;;;;;;;52.42;25.25;;;;;;;;;;5025707;28;20040;-51
2021/11/06 14:23:35;;;;;;;42.55;23.38;;;;;;;;;;5025906;28;20120;-52
2021/11/06 14:26:15;;;;;;;83.43;34.72;;;;;;;;;;5025321;28;20024;-51